sensor_id;sensor_type;location;lat;lon;timestamp;P1;durP1;ratioP1;P2;durP2;ratioP2
62654;SDS011;48717;55.556;37.816;2023-04-25T00:01:05;12.00;;;6.32;;
62654;SDS011;48717;55.556;37.816;2023-04-25T00:03:32;18.85;;;8.63;;
62654;SDS011;48717;55.556;37.816;2023-04-25T00:06:00;12.15;;;7.53;;
62654;SDS011;48717;55.556;37.816;2023-04-25T00:08:30;12.82;;;8.23;;
62654;SDS011;48717;55.556;37.816;2023-04-25T00:10:57;13.77;;;7.97;;
62654;SDS011;48717;55.556;37.816;2023-04-25T00:13:24;20.52;;;8.68;;
62654;SDS011;48717;55.556;37.816;2023-04-25T00:15:53;27.17;;;14.07;;
62654;SDS011;48717;55.556;37.816;2023-04-25T00:18:20;21.08;;;11.48;;
62654;SDS011;48717;55.556;37.816;2023-04-25T00:20:47;17.05;;;9.85;;
62654;SDS011;48717;55.556;37.816;2023-04-25T00:23:15;14.32;;;9.93;;
62654;SDS011;48717;55.556;37.816;2023-04-25T00:25:45;14.93;;;8.15;;
62654;SDS011;48717;55.556;37.816;2023-04-25T00:28:13;15.10;;;8.82;;
62654;SDS011;48717;55.556;37.816;2023-04-25T00:30:42;12.18;;;8.38;;
62654;SDS011;48717;55.556;37.816;2023-04-25T00:33:10;13.80;;;7.90;;
62654;SDS011;48717;55.556;37.816;2023-04-25T00:35:37;10.25;;;6.22;;
62654;SDS011;48717;55.556;37.816;2023-04-25T00:38:05;15.18;;;8.45;;
62654;SDS011;48717;55.556;37.816;2023-04-25T00:40:32;13.55;;;6.57;;
62654;SDS011;48717;55.556;37.816;2023-04-25T00:42:59;14.15;;;7.22;;
62654;SDS011;48717;55.556;37.816;2023-04-25T00:45:28;14.18;;;7.53;;
62654;SDS011;48717;55.556;37.816;2023-04-25T00:47:57;21.48;;;8.40;;
62654;SDS011;48717;55.556;37.816;2023-04-25T00:50:24;11.88;;;7.35;;
62654;SDS011;48717;55.556;37.816;2023-04-25T00:52:51;16.33;;;7.90;;
62654;SDS011;48717;55.556;37.816;2023-04-25T00:55:19;11.40;;;6.68;;
62654;SDS011;48717;55.556;37.816;2023-04-25T00:57:46;15.02;;;8.07;;
62654;SDS011;48717;55.556;37.816;2023-04-25T01:00:14;17.33;;;7.65;;
62654;SDS011;48717;55.556;37.816;2023-04-25T01:02:43;11.70;;;7.32;;
62654;SDS011;48717;55.556;37.816;2023-04-25T01:05:11;11.18;;;7.10;;
62654;SDS011;48717;55.556;37.816;2023-04-25T01:07:39;14.48;;;7.10;;
62654;SDS011;48717;55.556;37.816;2023-04-25T01:10:07;12.27;;;7.15;;
62654;SDS011;48717;55.556;37.816;2023-04-25T01:12:36;17.50;;;6.88;;
62654;SDS011;48717;55.556;37.816;2023-04-25T01:15:04;15.07;;;7.68;;
62654;SDS011;48717;55.556;37.816;2023-04-25T01:17:32;13.30;;;7.78;;
62654;SDS011;48717;55.556;37.816;2023-04-25T01:20:04;18.52;;;7.53;;
62654;SDS011;48717;55.556;37.816;2023-04-25T01:22:32;9.20;;;6.28;;
62654;SDS011;48717;55.556;37.816;2023-04-25T01:25:00;9.50;;;6.00;;
62654;SDS011;48717;55.556;37.816;2023-04-25T01:27:29;12.30;;;6.88;;
62654;SDS011;48717;55.556;37.816;2023-04-25T01:29:57;10.70;;;6.30;;
62654;SDS011;48717;55.556;37.816;2023-04-25T01:32:25;16.48;;;6.47;;
62654;SDS011;48717;55.556;37.816;2023-04-25T01:34:54;14.48;;;6.22;;
62654;SDS011;48717;55.556;37.816;2023-04-25T01:37:21;13.18;;;6.97;;
62654;SDS011;48717;55.556;37.816;2023-04-25T01:39:49;19.98;;;7.80;;
62654;SDS011;48717;55.556;37.816;2023-04-25T01:42:17;12.65;;;6.32;;
62654;SDS011;48717;55.556;37.816;2023-04-25T01:44:44;10.73;;;6.05;;
62654;SDS011;48717;55.556;37.816;2023-04-25T01:47:11;10.30;;;6.10;;
62654;SDS011;48717;55.556;37.816;2023-04-25T01:49:39;11.13;;;5.72;;
62654;SDS011;48717;55.556;37.816;2023-04-25T01:52:06;16.20;;;7.00;;
62654;SDS011;48717;55.556;37.816;2023-04-25T01:54:33;12.27;;;6.22;;
62654;SDS011;48717;55.556;37.816;2023-04-25T01:57:01;9.55;;;6.03;;
62654;SDS011;48717;55.556;37.816;2023-04-25T01:59:32;9.07;;;5.90;;
62654;SDS011;48717;55.556;37.816;2023-04-25T02:02:06;9.45;;;6.47;;
62654;SDS011;48717;55.556;37.816;2023-04-25T02:04:34;11.93;;;6.40;;
62654;SDS011;48717;55.556;37.816;2023-04-25T02:07:03;11.75;;;6.43;;
62654;SDS011;48717;55.556;37.816;2023-04-25T02:09:43;11.27;;;6.60;;
62654;SDS011;48717;55.556;37.816;2023-04-25T02:12:11;8.57;;;7.07;;
62654;SDS011;48717;55.556;37.816;2023-04-25T02:14:57;17.88;;;7.20;;
62654;SDS011;48717;55.556;37.816;2023-04-25T02:17:41;12.82;;;7.38;;
62654;SDS011;48717;55.556;37.816;2023-04-25T02:20:08;14.48;;;8.57;;
62654;SDS011;48717;55.556;37.816;2023-04-25T02:22:38;10.38;;;8.20;;
62654;SDS011;48717;55.556;37.816;2023-04-25T02:25:06;16.13;;;7.72;;
62654;SDS011;48717;55.556;37.816;2023-04-25T02:27:33;17.73;;;8.60;;
62654;SDS011;48717;55.556;37.816;2023-04-25T02:30:00;15.52;;;7.93;;
62654;SDS011;48717;55.556;37.816;2023-04-25T02:32:29;15.73;;;8.35;;
62654;SDS011;48717;55.556;37.816;2023-04-25T02:34:57;18.27;;;8.18;;
62654;SDS011;48717;55.556;37.816;2023-04-25T02:37:30;12.80;;;7.78;;
62654;SDS011;48717;55.556;37.816;2023-04-25T02:39:57;15.30;;;8.35;;
62654;SDS011;48717;55.556;37.816;2023-04-25T02:42:26;18.70;;;8.07;;
62654;SDS011;48717;55.556;37.816;2023-04-25T02:44:56;19.33;;;8.73;;
62654;SDS011;48717;55.556;37.816;2023-04-25T02:47:23;13.27;;;7.93;;
62654;SDS011;48717;55.556;37.816;2023-04-25T02:49:51;16.73;;;8.38;;
62654;SDS011;48717;55.556;37.816;2023-04-25T02:52:18;24.52;;;8.65;;
62654;SDS011;48717;55.556;37.816;2023-04-25T02:54:52;14.75;;;8.90;;
62654;SDS011;48717;55.556;37.816;2023-04-25T02:57:19;13.50;;;7.95;;
62654;SDS011;48717;55.556;37.816;2023-04-25T02:59:46;17.95;;;8.23;;
62654;SDS011;48717;55.556;37.816;2023-04-25T03:02:14;17.48;;;8.93;;
62654;SDS011;48717;55.556;37.816;2023-04-25T03:04:41;17.98;;;9.02;;
62654;SDS011;48717;55.556;37.816;2023-04-25T03:07:08;17.00;;;8.93;;
62654;SDS011;48717;55.556;37.816;2023-04-25T03:09:36;18.75;;;8.88;;
62654;SDS011;48717;55.556;37.816;2023-04-25T03:12:03;16.00;;;9.77;;
62654;SDS011;48717;55.556;37.816;2023-04-25T03:17:01;16.17;;;9.05;;
62654;SDS011;48717;55.556;37.816;2023-04-25T03:19:28;18.25;;;9.40;;
62654;SDS011;48717;55.556;37.816;2023-04-25T03:21:55;18.15;;;10.05;;
62654;SDS011;48717;55.556;37.816;2023-04-25T03:24:22;17.10;;;9.60;;
62654;SDS011;48717;55.556;37.816;2023-04-25T03:26:49;19.52;;;10.45;;
62654;SDS011;48717;55.556;37.816;2023-04-25T03:29:17;20.20;;;9.85;;
62654;SDS011;48717;55.556;37.816;2023-04-25T03:31:45;19.80;;;9.68;;
62654;SDS011;48717;55.556;37.816;2023-04-25T03:34:13;15.85;;;9.45;;
62654;SDS011;48717;55.556;37.816;2023-04-25T03:36:41;16.92;;;9.85;;
62654;SDS011;48717;55.556;37.816;2023-04-25T03:39:09;16.67;;;10.18;;
62654;SDS011;48717;55.556;37.816;2023-04-25T03:41:38;19.20;;;9.38;;
62654;SDS011;48717;55.556;37.816;2023-04-25T03:44:11;14.90;;;9.15;;
62654;SDS011;48717;55.556;37.816;2023-04-25T03:46:39;16.00;;;9.70;;
62654;SDS011;48717;55.556;37.816;2023-04-25T03:49:06;15.45;;;9.25;;
62654;SDS011;48717;55.556;37.816;2023-04-25T03:51:55;17.63;;;9.65;;
62654;SDS011;48717;55.556;37.816;2023-04-25T03:54:23;18.73;;;9.52;;
62654;SDS011;48717;55.556;37.816;2023-04-25T03:57:10;16.40;;;9.35;;
62654;SDS011;48717;55.556;37.816;2023-04-25T03:59:39;23.13;;;14.75;;
62654;SDS011;48717;55.556;37.816;2023-04-25T04:04:36;12.88;;;8.45;;
62654;SDS011;48717;55.556;37.816;2023-04-25T04:07:05;18.13;;;10.18;;
62654;SDS011;48717;55.556;37.816;2023-04-25T04:09:35;14.07;;;9.52;;
62654;SDS011;48717;55.556;37.816;2023-04-25T04:12:07;14.20;;;9.43;;
62654;SDS011;48717;55.556;37.816;2023-04-25T04:14:36;14.77;;;8.15;;
62654;SDS011;48717;55.556;37.816;2023-04-25T04:17:04;15.10;;;8.70;;
62654;SDS011;48717;55.556;37.816;2023-04-25T04:19:33;15.80;;;8.98;;
62654;SDS011;48717;55.556;37.816;2023-04-25T04:22:13;14.48;;;9.13;;
62654;SDS011;48717;55.556;37.816;2023-04-25T04:24:40;16.58;;;10.02;;
62654;SDS011;48717;55.556;37.816;2023-04-25T04:27:12;17.83;;;9.50;;
62654;SDS011;48717;55.556;37.816;2023-04-25T04:29:58;16.77;;;9.25;;
62654;SDS011;48717;55.556;37.816;2023-04-25T04:32:33;19.73;;;9.30;;
62654;SDS011;48717;55.556;37.816;2023-04-25T04:35:03;16.08;;;8.95;;
62654;SDS011;48717;55.556;37.816;2023-04-25T04:37:32;14.52;;;8.90;;
62654;SDS011;48717;55.556;37.816;2023-04-25T04:40:01;14.52;;;9.27;;
62654;SDS011;48717;55.556;37.816;2023-04-25T04:42:43;10.27;;;8.25;;
62654;SDS011;48717;55.556;37.816;2023-04-25T04:45:22;12.65;;;8.90;;
62654;SDS011;48717;55.556;37.816;2023-04-25T04:48:29;17.80;;;8.40;;
62654;SDS011;48717;55.556;37.816;2023-04-25T04:51:17;17.38;;;9.48;;
62654;SDS011;48717;55.556;37.816;2023-04-25T04:53:53;15.02;;;8.18;;
62654;SDS011;48717;55.556;37.816;2023-04-25T04:56:54;14.93;;;8.48;;
62654;SDS011;48717;55.556;37.816;2023-04-25T04:59:37;18.17;;;8.68;;
62654;SDS011;48717;55.556;37.816;2023-04-25T05:02:20;14.18;;;8.27;;
62654;SDS011;48717;55.556;37.816;2023-04-25T05:05:10;12.48;;;8.27;;
62654;SDS011;48717;55.556;37.816;2023-04-25T05:07:59;13.45;;;7.82;;
62654;SDS011;48717;55.556;37.816;2023-04-25T05:10:46;19.42;;;8.30;;
62654;SDS011;48717;55.556;37.816;2023-04-25T05:13:32;14.00;;;8.50;;
62654;SDS011;48717;55.556;37.816;2023-04-25T05:16:00;13.35;;;7.78;;
62654;SDS011;48717;55.556;37.816;2023-04-25T05:18:47;13.13;;;7.95;;
62654;SDS011;48717;55.556;37.816;2023-04-25T05:21:26;14.82;;;7.68;;
62654;SDS011;48717;55.556;37.816;2023-04-25T05:24:14;10.07;;;7.63;;
62654;SDS011;48717;55.556;37.816;2023-04-25T05:27:16;12.57;;;7.55;;
62654;SDS011;48717;55.556;37.816;2023-04-25T05:30:04;16.55;;;7.25;;
62654;SDS011;48717;55.556;37.816;2023-04-25T05:32:55;12.18;;;6.93;;
62654;SDS011;48717;55.556;37.816;2023-04-25T05:35:22;11.23;;;6.82;;
62654;SDS011;48717;55.556;37.816;2023-04-25T05:37:50;13.07;;;6.57;;
62654;SDS011;48717;55.556;37.816;2023-04-25T05:42:58;14.63;;;6.70;;
62654;SDS011;48717;55.556;37.816;2023-04-25T05:45:42;12.70;;;6.50;;
62654;SDS011;48717;55.556;37.816;2023-04-25T05:48:30;9.70;;;6.03;;
62654;SDS011;48717;55.556;37.816;2023-04-25T05:54:09;11.25;;;5.82;;
62654;SDS011;48717;55.556;37.816;2023-04-25T05:56:37;23.70;;;13.70;;
62654;SDS011;48717;55.556;37.816;2023-04-25T05:59:05;10.75;;;6.32;;
62654;SDS011;48717;55.556;37.816;2023-04-25T06:01:32;13.20;;;6.15;;
62654;SDS011;48717;55.556;37.816;2023-04-25T06:03:59;10.77;;;5.55;;
62654;SDS011;48717;55.556;37.816;2023-04-25T06:06:27;9.60;;;5.68;;
62654;SDS011;48717;55.556;37.816;2023-04-25T06:08:54;13.18;;;5.57;;
62654;SDS011;48717;55.556;37.816;2023-04-25T06:11:22;12.05;;;5.25;;
62654;SDS011;48717;55.556;37.816;2023-04-25T06:13:49;8.48;;;4.90;;
62654;SDS011;48717;55.556;37.816;2023-04-25T06:16:17;7.88;;;4.60;;
62654;SDS011;48717;55.556;37.816;2023-04-25T06:18:44;7.03;;;4.70;;
62654;SDS011;48717;55.556;37.816;2023-04-25T06:21:12;8.57;;;4.60;;
62654;SDS011;48717;55.556;37.816;2023-04-25T06:23:40;8.55;;;4.80;;
62654;SDS011;48717;55.556;37.816;2023-04-25T06:26:10;9.13;;;4.22;;
62654;SDS011;48717;55.556;37.816;2023-04-25T06:28:40;9.07;;;4.28;;
62654;SDS011;48717;55.556;37.816;2023-04-25T06:31:08;9.00;;;3.85;;
62654;SDS011;48717;55.556;37.816;2023-04-25T06:33:35;8.18;;;3.45;;
62654;SDS011;48717;55.556;37.816;2023-04-25T06:36:03;6.00;;;3.53;;
62654;SDS011;48717;55.556;37.816;2023-04-25T06:38:31;28.90;;;13.90;;
62654;SDS011;48717;55.556;37.816;2023-04-25T06:40:58;7.70;;;3.42;;
62654;SDS011;48717;55.556;37.816;2023-04-25T06:43:29;4.63;;;3.33;;
62654;SDS011;48717;55.556;37.816;2023-04-25T06:46:22;6.30;;;3.85;;
62654;SDS011;48717;55.556;37.816;2023-04-25T06:48:50;9.00;;;3.45;;
62654;SDS011;48717;55.556;37.816;2023-04-25T06:51:19;11.67;;;3.63;;
62654;SDS011;48717;55.556;37.816;2023-04-25T06:53:51;7.70;;;3.30;;
62654;SDS011;48717;55.556;37.816;2023-04-25T06:56:28;6.35;;;3.60;;
62654;SDS011;48717;55.556;37.816;2023-04-25T06:59:12;9.52;;;3.53;;
62654;SDS011;48717;55.556;37.816;2023-04-25T07:01:40;4.15;;;3.30;;
62654;SDS011;48717;55.556;37.816;2023-04-25T07:04:13;7.38;;;4.00;;
62654;SDS011;48717;55.556;37.816;2023-04-25T07:06:47;13.18;;;8.65;;
62654;SDS011;48717;55.556;37.816;2023-04-25T07:09:20;5.65;;;3.10;;
62654;SDS011;48717;55.556;37.816;2023-04-25T07:11:49;5.82;;;3.53;;
62654;SDS011;48717;55.556;37.816;2023-04-25T07:14:16;9.20;;;4.78;;
62654;SDS011;48717;55.556;37.816;2023-04-25T07:16:44;7.68;;;4.05;;
62654;SDS011;48717;55.556;37.816;2023-04-25T07:19:12;3.50;;;3.15;;
62654;SDS011;48717;55.556;37.816;2023-04-25T07:21:39;5.45;;;3.47;;
62654;SDS011;48717;55.556;37.816;2023-04-25T07:24:06;13.07;;;8.52;;
62654;SDS011;48717;55.556;37.816;2023-04-25T07:26:38;7.55;;;3.17;;
62654;SDS011;48717;55.556;37.816;2023-04-25T07:29:23;7.97;;;3.75;;
62654;SDS011;48717;55.556;37.816;2023-04-25T07:31:51;6.35;;;3.03;;
62654;SDS011;48717;55.556;37.816;2023-04-25T07:34:19;8.73;;;3.15;;
62654;SDS011;48717;55.556;37.816;2023-04-25T07:36:47;11.05;;;3.53;;
62654;SDS011;48717;55.556;37.816;2023-04-25T07:39:15;3.60;;;2.95;;
62654;SDS011;48717;55.556;37.816;2023-04-25T07:41:43;5.60;;;2.92;;
62654;SDS011;48717;55.556;37.816;2023-04-25T07:44:16;9.57;;;3.10;;
62654;SDS011;48717;55.556;37.816;2023-04-25T07:46:43;5.15;;;3.10;;
62654;SDS011;48717;55.556;37.816;2023-04-25T07:49:11;6.05;;;3.10;;
62654;SDS011;48717;55.556;37.816;2023-04-25T07:51:41;5.63;;;3.20;;
62654;SDS011;48717;55.556;37.816;2023-04-25T07:54:13;7.60;;;3.60;;
62654;SDS011;48717;55.556;37.816;2023-04-25T07:56:46;4.45;;;3.05;;
62654;SDS011;48717;55.556;37.816;2023-04-25T07:59:22;4.75;;;3.78;;
62654;SDS011;48717;55.556;37.816;2023-04-25T08:01:49;5.03;;;3.65;;
62654;SDS011;48717;55.556;37.816;2023-04-25T08:04:19;9.20;;;4.10;;
62654;SDS011;48717;55.556;37.816;2023-04-25T08:06:56;5.40;;;3.88;;
62654;SDS011;48717;55.556;37.816;2023-04-25T08:09:28;5.13;;;3.60;;
62654;SDS011;48717;55.556;37.816;2023-04-25T08:11:56;9.35;;;4.00;;
62654;SDS011;48717;55.556;37.816;2023-04-25T08:14:28;7.03;;;3.35;;
62654;SDS011;48717;55.556;37.816;2023-04-25T08:17:03;5.55;;;3.40;;
62654;SDS011;48717;55.556;37.816;2023-04-25T08:19:34;6.10;;;3.67;;
62654;SDS011;48717;55.556;37.816;2023-04-25T08:22:02;4.75;;;3.53;;
62654;SDS011;48717;55.556;37.816;2023-04-25T08:24:40;6.30;;;3.30;;
62654;SDS011;48717;55.556;37.816;2023-04-25T08:27:08;5.38;;;3.10;;
62654;SDS011;48717;55.556;37.816;2023-04-25T08:29:36;5.05;;;3.30;;
62654;SDS011;48717;55.556;37.816;2023-04-25T08:32:03;7.72;;;3.22;;
62654;SDS011;48717;55.556;37.816;2023-04-25T08:34:33;5.30;;;3.30;;
62654;SDS011;48717;55.556;37.816;2023-04-25T08:37:02;5.07;;;3.10;;
62654;SDS011;48717;55.556;37.816;2023-04-25T08:39:43;15.13;;;3.20;;
62654;SDS011;48717;55.556;37.816;2023-04-25T08:42:33;4.70;;;2.93;;
62654;SDS011;48717;55.556;37.816;2023-04-25T08:45:03;3.97;;;2.90;;
62654;SDS011;48717;55.556;37.816;2023-04-25T08:47:37;8.45;;;2.65;;
62654;SDS011;48717;55.556;37.816;2023-04-25T08:50:07;10.85;;;2.47;;
62654;SDS011;48717;55.556;37.816;2023-04-25T08:52:36;5.65;;;3.00;;
62654;SDS011;48717;55.556;37.816;2023-04-25T08:55:06;5.00;;;2.60;;
62654;SDS011;48717;55.556;37.816;2023-04-25T08:57:37;8.75;;;3.28;;
62654;SDS011;48717;55.556;37.816;2023-04-25T09:00:04;4.30;;;2.63;;
62654;SDS011;48717;55.556;37.816;2023-04-25T09:02:35;11.85;;;2.88;;
62654;SDS011;48717;55.556;37.816;2023-04-25T09:05:03;5.75;;;2.60;;
62654;SDS011;48717;55.556;37.816;2023-04-25T09:07:31;7.65;;;2.97;;
62654;SDS011;48717;55.556;37.816;2023-04-25T09:09:58;9.18;;;2.60;;
62654;SDS011;48717;55.556;37.816;2023-04-25T09:12:34;8.27;;;3.40;;
62654;SDS011;48717;55.556;37.816;2023-04-25T09:17:55;7.57;;;2.90;;
62654;SDS011;48717;55.556;37.816;2023-04-25T09:23:04;4.87;;;2.60;;
62654;SDS011;48717;55.556;37.816;2023-04-25T09:25:36;13.82;;;3.15;;
62654;SDS011;48717;55.556;37.816;2023-04-25T09:28:08;5.60;;;2.50;;
62654;SDS011;48717;55.556;37.816;2023-04-25T09:30:36;6.53;;;2.65;;
62654;SDS011;48717;55.556;37.816;2023-04-25T09:33:14;4.95;;;3.00;;
62654;SDS011;48717;55.556;37.816;2023-04-25T09:35:46;5.45;;;2.80;;
62654;SDS011;48717;55.556;37.816;2023-04-25T09:38:44;8.45;;;2.70;;
62654;SDS011;48717;55.556;37.816;2023-04-25T09:41:23;4.43;;;2.63;;
62654;SDS011;48717;55.556;37.816;2023-04-25T09:43:56;4.15;;;2.30;;
62654;SDS011;48717;55.556;37.816;2023-04-25T09:46:32;9.80;;;2.88;;
62654;SDS011;48717;55.556;37.816;2023-04-25T09:49:07;9.45;;;2.90;;
62654;SDS011;48717;55.556;37.816;2023-04-25T09:51:55;21.85;;;4.50;;
62654;SDS011;48717;55.556;37.816;2023-04-25T09:54:27;6.60;;;2.83;;
62654;SDS011;48717;55.556;37.816;2023-04-25T09:59:48;3.88;;;2.90;;
62654;SDS011;48717;55.556;37.816;2023-04-25T10:02:21;6.30;;;2.85;;
62654;SDS011;48717;55.556;37.816;2023-04-25T10:04:54;6.13;;;2.80;;
62654;SDS011;48717;55.556;37.816;2023-04-25T10:07:30;6.10;;;2.72;;
62654;SDS011;48717;55.556;37.816;2023-04-25T10:10:00;4.47;;;2.20;;
62654;SDS011;48717;55.556;37.816;2023-04-25T10:12:35;3.47;;;1.83;;
62654;SDS011;48717;55.556;37.816;2023-04-25T10:15:03;5.80;;;2.10;;
62654;SDS011;48717;55.556;37.816;2023-04-25T10:17:32;3.88;;;2.33;;
62654;SDS011;48717;55.556;37.816;2023-04-25T10:20:02;5.87;;;2.30;;
62654;SDS011;48717;55.556;37.816;2023-04-25T10:22:34;4.75;;;2.53;;
62654;SDS011;48717;55.556;37.816;2023-04-25T10:25:05;3.45;;;2.13;;
62654;SDS011;48717;55.556;37.816;2023-04-25T10:27:34;3.90;;;2.00;;
62654;SDS011;48717;55.556;37.816;2023-04-25T10:30:04;4.70;;;3.05;;
62654;SDS011;48717;55.556;37.816;2023-04-25T10:32:37;6.28;;;2.35;;
62654;SDS011;48717;55.556;37.816;2023-04-25T10:35:15;4.97;;;2.28;;
62654;SDS011;48717;55.556;37.816;2023-04-25T10:40:31;1.90;;;1.80;;
62654;SDS011;48717;55.556;37.816;2023-04-25T10:45:59;4.30;;;1.90;;
62654;SDS011;48717;55.556;37.816;2023-04-25T10:48:30;4.22;;;2.00;;
62654;SDS011;48717;55.556;37.816;2023-04-25T10:51:08;4.97;;;2.20;;
62654;SDS011;48717;55.556;37.816;2023-04-25T10:53:39;3.65;;;2.05;;
62654;SDS011;48717;55.556;37.816;2023-04-25T10:56:10;2.60;;;2.33;;
62654;SDS011;48717;55.556;37.816;2023-04-25T10:58:44;4.22;;;2.20;;
62654;SDS011;48717;55.556;37.816;2023-04-25T11:01:15;5.95;;;2.33;;
62654;SDS011;48717;55.556;37.816;2023-04-25T11:03:46;5.65;;;2.47;;
62654;SDS011;48717;55.556;37.816;2023-04-25T11:06:23;7.40;;;2.47;;
62654;SDS011;48717;55.556;37.816;2023-04-25T11:09:00;6.20;;;2.20;;
62654;SDS011;48717;55.556;37.816;2023-04-25T11:11:28;5.68;;;2.47;;
62654;SDS011;48717;55.556;37.816;2023-04-25T11:13:56;4.25;;;2.53;;
62654;SDS011;48717;55.556;37.816;2023-04-25T11:16:24;4.05;;;2.50;;
62654;SDS011;48717;55.556;37.816;2023-04-25T11:18:56;2.67;;;2.33;;
62654;SDS011;48717;55.556;37.816;2023-04-25T11:21:27;5.25;;;2.33;;
62654;SDS011;48717;55.556;37.816;2023-04-25T11:23:56;5.97;;;2.30;;
62654;SDS011;48717;55.556;37.816;2023-04-25T11:26:24;5.55;;;2.40;;
62654;SDS011;48717;55.556;37.816;2023-04-25T11:28:51;2.95;;;2.30;;
62654;SDS011;48717;55.556;37.816;2023-04-25T11:31:21;4.55;;;2.30;;
62654;SDS011;48717;55.556;37.816;2023-04-25T11:33:49;5.65;;;2.30;;
62654;SDS011;48717;55.556;37.816;2023-04-25T11:36:16;4.45;;;2.67;;
62654;SDS011;48717;55.556;37.816;2023-04-25T11:38:43;3.60;;;2.50;;
62654;SDS011;48717;55.556;37.816;2023-04-25T11:41:11;3.53;;;2.35;;
62654;SDS011;48717;55.556;37.816;2023-04-25T11:43:38;3.78;;;2.40;;
62654;SDS011;48717;55.556;37.816;2023-04-25T11:46:08;4.28;;;2.17;;
62654;SDS011;48717;55.556;37.816;2023-04-25T11:48:45;5.07;;;2.40;;
62654;SDS011;48717;55.556;37.816;2023-04-25T11:51:13;4.07;;;2.28;;
62654;SDS011;48717;55.556;37.816;2023-04-25T11:53:41;6.65;;;3.45;;
62654;SDS011;48717;55.556;37.816;2023-04-25T11:56:10;9.20;;;2.40;;
62654;SDS011;48717;55.556;37.816;2023-04-25T11:58:57;4.85;;;3.00;;
62654;SDS011;48717;55.556;37.816;2023-04-25T12:01:38;10.35;;;2.85;;
62654;SDS011;48717;55.556;37.816;2023-04-25T12:04:13;4.85;;;2.50;;
62654;SDS011;48717;55.556;37.816;2023-04-25T12:06:42;5.00;;;2.40;;
62654;SDS011;48717;55.556;37.816;2023-04-25T12:09:11;3.50;;;2.30;;
62654;SDS011;48717;55.556;37.816;2023-04-25T12:11:43;5.28;;;2.70;;
62654;SDS011;48717;55.556;37.816;2023-04-25T12:14:12;2.40;;;2.25;;
62654;SDS011;48717;55.556;37.816;2023-04-25T12:16:48;4.18;;;2.70;;
62654;SDS011;48717;55.556;37.816;2023-04-25T12:19:16;4.63;;;2.60;;
62654;SDS011;48717;55.556;37.816;2023-04-25T12:21:44;3.35;;;2.10;;
62654;SDS011;48717;55.556;37.816;2023-04-25T12:24:24;5.32;;;2.53;;
62654;SDS011;48717;55.556;37.816;2023-04-25T12:26:59;5.27;;;3.00;;
62654;SDS011;48717;55.556;37.816;2023-04-25T12:29:31;6.78;;;3.25;;
62654;SDS011;48717;55.556;37.816;2023-04-25T12:32:14;13.00;;;4.00;;
62654;SDS011;48717;55.556;37.816;2023-04-25T12:34:42;9.65;;;3.20;;
62654;SDS011;48717;55.556;37.816;2023-04-25T12:37:09;6.40;;;2.90;;
62654;SDS011;48717;55.556;37.816;2023-04-25T12:39:37;5.13;;;3.05;;
62654;SDS011;48717;55.556;37.816;2023-04-25T12:42:04;5.60;;;3.20;;
62654;SDS011;48717;55.556;37.816;2023-04-25T12:44:34;4.30;;;3.00;;
62654;SDS011;48717;55.556;37.816;2023-04-25T12:47:02;6.03;;;2.88;;
62654;SDS011;48717;55.556;37.816;2023-04-25T12:49:30;7.10;;;3.05;;
62654;SDS011;48717;55.556;37.816;2023-04-25T12:51:57;5.07;;;3.22;;
62654;SDS011;48717;55.556;37.816;2023-04-25T12:54:24;3.38;;;2.78;;
62654;SDS011;48717;55.556;37.816;2023-04-25T12:56:52;4.93;;;3.10;;
62654;SDS011;48717;55.556;37.816;2023-04-25T12:59:19;3.78;;;2.60;;
62654;SDS011;48717;55.556;37.816;2023-04-25T13:01:47;6.82;;;2.85;;
62654;SDS011;48717;55.556;37.816;2023-04-25T13:04:15;3.47;;;2.78;;
62654;SDS011;48717;55.556;37.816;2023-04-25T13:06:43;5.28;;;2.80;;
62654;SDS011;48717;55.556;37.816;2023-04-25T13:09:10;7.50;;;2.60;;
62654;SDS011;48717;55.556;37.816;2023-04-25T13:11:39;3.30;;;2.73;;
62654;SDS011;48717;55.556;37.816;2023-04-25T13:14:08;3.45;;;2.50;;
62654;SDS011;48717;55.556;37.816;2023-04-25T13:16:35;3.45;;;2.63;;
62654;SDS011;48717;55.556;37.816;2023-04-25T13:19:02;7.15;;;3.15;;
62654;SDS011;48717;55.556;37.816;2023-04-25T13:21:30;6.75;;;2.92;;
62654;SDS011;48717;55.556;37.816;2023-04-25T13:23:59;3.63;;;2.67;;
62654;SDS011;48717;55.556;37.816;2023-04-25T13:26:26;4.93;;;2.70;;
62654;SDS011;48717;55.556;37.816;2023-04-25T13:28:53;4.85;;;2.60;;
62654;SDS011;48717;55.556;37.816;2023-04-25T13:31:21;9.35;;;2.85;;
62654;SDS011;48717;55.556;37.816;2023-04-25T13:33:48;5.88;;;2.92;;
62654;SDS011;48717;55.556;37.816;2023-04-25T13:36:16;10.48;;;2.88;;
62654;SDS011;48717;55.556;37.816;2023-04-25T13:38:43;6.95;;;3.38;;
62654;SDS011;48717;55.556;37.816;2023-04-25T13:41:12;28.48;;;4.35;;
62654;SDS011;48717;55.556;37.816;2023-04-25T13:43:46;13.98;;;5.10;;
62654;SDS011;48717;55.556;37.816;2023-04-25T13:46:14;7.60;;;4.13;;
62654;SDS011;48717;55.556;37.816;2023-04-25T13:49:05;5.80;;;3.55;;
62654;SDS011;48717;55.556;37.816;2023-04-25T13:51:39;5.25;;;3.45;;
62654;SDS011;48717;55.556;37.816;2023-04-25T13:54:07;9.38;;;3.40;;
62654;SDS011;48717;55.556;37.816;2023-04-25T13:56:34;5.40;;;3.55;;
62654;SDS011;48717;55.556;37.816;2023-04-25T13:59:01;10.15;;;3.95;;
62654;SDS011;48717;55.556;37.816;2023-04-25T14:01:29;5.47;;;3.97;;
62654;SDS011;48717;55.556;37.816;2023-04-25T14:03:57;6.88;;;3.83;;
62654;SDS011;48717;55.556;37.816;2023-04-25T14:06:25;6.38;;;4.10;;
62654;SDS011;48717;55.556;37.816;2023-04-25T14:08:55;10.52;;;4.40;;
62654;SDS011;48717;55.556;37.816;2023-04-25T14:11:23;6.88;;;4.25;;
62654;SDS011;48717;55.556;37.816;2023-04-25T14:13:50;9.07;;;4.85;;
62654;SDS011;48717;55.556;37.816;2023-04-25T14:16:17;7.78;;;4.85;;
62654;SDS011;48717;55.556;37.816;2023-04-25T14:18:44;7.95;;;4.70;;
62654;SDS011;48717;55.556;37.816;2023-04-25T14:21:12;4.93;;;4.30;;
62654;SDS011;48717;55.556;37.816;2023-04-25T14:23:39;8.10;;;4.43;;
62654;SDS011;48717;55.556;37.816;2023-04-25T14:26:07;8.27;;;4.88;;
62654;SDS011;48717;55.556;37.816;2023-04-25T14:28:36;15.50;;;5.38;;
62654;SDS011;48717;55.556;37.816;2023-04-25T14:31:03;8.85;;;5.10;;
62654;SDS011;48717;55.556;37.816;2023-04-25T14:33:30;11.70;;;5.68;;
62654;SDS011;48717;55.556;37.816;2023-04-25T14:35:57;17.33;;;7.03;;
62654;SDS011;48717;55.556;37.816;2023-04-25T14:38:24;8.32;;;5.28;;
62654;SDS011;48717;55.556;37.816;2023-04-25T14:40:52;10.88;;;5.35;;
62654;SDS011;48717;55.556;37.816;2023-04-25T14:43:20;11.05;;;5.15;;
62654;SDS011;48717;55.556;37.816;2023-04-25T14:45:47;12.50;;;5.20;;
62654;SDS011;48717;55.556;37.816;2023-04-25T14:48:15;9.25;;;6.03;;
62654;SDS011;48717;55.556;37.816;2023-04-25T14:50:45;9.95;;;5.88;;
62654;SDS011;48717;55.556;37.816;2023-04-25T14:53:13;11.88;;;6.30;;
62654;SDS011;48717;55.556;37.816;2023-04-25T14:55:40;8.75;;;6.15;;
62654;SDS011;48717;55.556;37.816;2023-04-25T14:58:07;10.00;;;5.07;;
62654;SDS011;48717;55.556;37.816;2023-04-25T15:00:35;6.93;;;4.82;;
62654;SDS011;48717;55.556;37.816;2023-04-25T15:03:02;7.80;;;4.75;;
62654;SDS011;48717;55.556;37.816;2023-04-25T15:05:30;12.95;;;5.60;;
62654;SDS011;48717;55.556;37.816;2023-04-25T15:07:57;8.73;;;5.10;;
62654;SDS011;48717;55.556;37.816;2023-04-25T15:10:24;7.13;;;4.68;;
62654;SDS011;48717;55.556;37.816;2023-04-25T15:12:51;8.07;;;4.20;;
62654;SDS011;48717;55.556;37.816;2023-04-25T15:15:20;14.50;;;9.05;;